Time;durP1;ratioP1;P1;durP2;ratioP2;P2;SDS_P1;SDS_P2;PMS_P1;PMS_P2;Temp;Humidity;BMP_temperature;BMP_pressure;BME280_temperature;BME280_humidity;BME280_pressure;Samples;Min_cycle;Max_cycle;Signal;HPM_P1;HPM_P2
2021/12/24 00:01:18;;;;;;;10.70;8.23;;;8.10;76.80;;;;;;5039237;28;20115;-86
2021/12/24 00:03:53;;;;;;;11.05;8.50;;;8.10;76.80;;;;;;5039287;28;20471;-86
2021/12/24 00:06:24;;;;;;;11.02;8.57;;;8.10;76.80;;;;;;5037508;28;20035;-86
2021/12/24 00:09:08;;;;;;;11.57;8.38;;;8.20;76.80;;;;;;5039819;28;20075;-85
2021/12/24 00:11:51;;;;;;;11.63;9.15;;;8.20;77.40;;;;;;5054440;28;20029;-86
2021/12/24 00:14:47;;;;;;;11.77;8.82;;;8.20;76.80;;;;;;5038383;28;20094;-87
2021/12/24 00:17:25;;;;;;;11.07;8.75;;;8.20;76.80;;;;;;5037588;28;20171;-86
2021/12/24 00:38:11;;;;;;;10.70;7.88;;;8.30;76.80;;;;;;5034091;28;20076;-85
2021/12/24 00:40:50;;;;;;;9.80;8.23;;;8.40;76.80;;;;;;5054495;28;20028;-87
2021/12/24 00:43:38;;;;;;;10.98;8.10;;;8.40;76.80;;;;;;5039149;28;20059;-87
2021/12/24 00:46:31;;;;;;;11.38;8.45;;;8.40;76.80;;;;;;5040478;28;20029;-86
2021/12/24 00:49:07;;;;;;;11.45;8.77;;;8.40;76.80;;;;;;5023601;28;20129;-86
2021/12/24 00:57:28;;;;;;;10.32;8.13;;;8.50;76.80;;;;;;5053767;28;20037;-86
2021/12/24 01:00:05;;;;;;;9.82;7.78;;;8.50;76.80;;;;;;5037885;28;20039;-86
2021/12/24 01:02:37;;;;;;;11.23;8.45;;;8.50;76.80;;;;;;5038104;28;20025;-86
2021/12/24 01:05:19;;;;;;;10.25;7.80;;;8.50;76.70;;;;;;5021743;28;20120;-86
2021/12/24 01:07:59;;;;;;;10.93;8.20;;;8.60;76.80;;;;;;5038269;28;20366;-86
2021/12/24 01:10:36;;;;;;;10.30;8.25;;;8.60;76.80;;;;;;5037923;28;20201;-85
2021/12/24 01:13:10;;;;;;;10.63;8.25;;;8.60;76.80;;;;;;5037031;28;20037;-86
2021/12/24 01:16:00;;;;;;;9.57;7.70;;;8.70;76.80;;;;;;5038420;28;20048;-85
2021/12/24 01:24:11;;;;;;;10.45;7.55;;;8.70;76.70;;;;;;5058284;28;20049;-87
2021/12/24 01:37:57;;;;;;;10.07;7.25;;;8.80;76.70;;;;;;5053522;28;20478;-88
2021/12/24 01:41:19;;;;;;;10.23;7.63;;;8.80;76.70;;;;;;5040787;28;20121;-87
2021/12/24 01:43:11;;;;;;;10.57;8.00;;;8.90;76.80;;;;;;5046261;28;20033;-87
2021/12/24 01:45:37;;;;;;;10.63;7.78;;;8.90;76.80;;;;;;5024239;28;20355;-86
2021/12/24 01:48:09;;;;;;;11.60;8.18;;;8.90;76.80;;;;;;5057225;28;20090;-87
2021/12/24 01:50:38;;;;;;;9.95;7.20;;;8.90;76.80;;;;;;5057260;28;20120;-87
2021/12/24 01:53:06;;;;;;;10.60;7.65;;;8.90;76.70;;;;;;5057093;28;20032;-87
2021/12/24 01:55:33;;;;;;;9.52;6.93;;;9.00;76.80;;;;;;5041014;28;20036;-87
2021/12/24 01:57:59;;;;;;;9.55;7.55;;;9.00;76.70;;;;;;5040170;28;20029;-87
2021/12/24 02:00:38;;;;;;;8.68;7.13;;;9.00;76.70;;;;;;5024723;28;20060;-88
2021/12/24 02:03:06;;;;;;;8.23;6.75;;;9.10;76.80;;;;;;5057021;28;20031;-88
2021/12/24 02:05:33;;;;;;;9.57;6.88;;;9.10;76.70;;;;;;5064008;28;20025;-87
2021/12/24 02:07:59;;;;;;;8.82;6.55;;;9.10;76.70;;;;;;5060107;28;20067;-88
2021/12/24 02:10:26;;;;;;;9.70;7.32;;;9.10;76.70;;;;;;5053835;28;20033;-87
2021/12/24 02:12:53;;;;;;;9.25;7.05;;;9.20;76.70;;;;;;5041706;28;20059;-88
2021/12/24 02:16:11;;;;;;;8.13;6.15;;;9.20;76.70;;;;;;5023839;28;20040;-87
2021/12/24 02:18:46;;;;;;;8.90;6.70;;;9.20;76.70;;;;;;5048435;28;20052;-87
2021/12/24 02:29:21;;;;;;;7.43;6.05;;;9.30;76.70;;;;;;5044718;28;20068;-88
2021/12/24 02:31:48;;;;;;;7.90;6.10;;;9.30;76.60;;;;;;5042384;28;20037;-87
2021/12/24 02:34:14;;;;;;;7.35;5.88;;;9.30;76.70;;;;;;5039757;28;20024;-88
2021/12/24 02:36:41;;;;;;;7.85;6.28;;;9.30;76.70;;;;;;5056496;28;20029;-87
2021/12/24 02:39:07;;;;;;;8.07;6.13;;;9.40;76.70;;;;;;5022924;28;20138;-88
2021/12/24 02:41:33;;;;;;;8.20;5.88;;;9.40;76.70;;;;;;5039706;28;20029;-87
2021/12/24 02:43:58;;;;;;;8.63;6.10;;;9.40;76.70;;;;;;5039648;28;20032;-87
2021/12/24 02:46:41;;;;;;;7.88;6.15;;;9.50;76.70;;;;;;5040187;28;20025;-86
2021/12/24 02:49:14;;;;;;;8.27;6.15;;;9.50;76.60;;;;;;5040650;28;20123;-86
2021/12/24 02:54:25;;;;;;;7.88;5.85;;;9.50;76.60;;;;;;5041735;28;20037;-87
2021/12/24 02:56:54;;;;;;;7.68;5.85;;;9.50;76.60;;;;;;5055693;28;20040;-86
2021/12/24 02:59:30;;;;;;;7.70;5.93;;;9.60;76.60;;;;;;5038920;28;20045;-85
2021/12/24 03:01:57;;;;;;;8.90;6.72;;;9.60;76.60;;;;;;5055861;28;20086;-87
2021/12/24 03:04:23;;;;;;;7.35;6.05;;;9.60;76.60;;;;;;5055482;28;20478;-86
2021/12/24 03:06:51;;;;;;;7.82;6.30;;;9.60;76.60;;;;;;5055657;28;20040;-87
2021/12/24 03:09:19;;;;;;;9.07;6.78;;;9.60;76.60;;;;;;5055572;28;20021;-86
2021/12/24 03:11:47;;;;;;;8.40;6.43;;;9.70;76.60;;;;;;5038728;28;20029;-87
2021/12/24 03:14:15;;;;;;;8.93;6.93;;;9.70;76.60;;;;;;5044286;28;20017;-90
2021/12/24 03:16:45;;;;;;;8.20;6.25;;;9.70;76.60;;;;;;5050882;28;20048;-88
2021/12/24 03:19:12;;;;;;;8.93;6.75;;;9.70;76.50;;;;;;5039814;28;20489;-87
2021/12/24 03:21:56;;;;;;;8.05;6.72;;;9.80;76.60;;;;;;5057476;28;20137;-88
2021/12/24 03:26:48;;;;;;;9.10;6.57;;;9.80;76.50;;;;;;5038920;28;20272;-87
2021/12/24 03:29:16;;;;;;;8.77;6.70;;;9.80;76.50;;;;;;5055205;28;20031;-86
2021/12/24 03:31:43;;;;;;;8.95;7.38;;;9.90;76.50;;;;;;5055647;28;20028;-87
2021/12/24 03:34:11;;;;;;;8.93;7.10;;;9.80;76.50;;;;;;5055424;28;20025;-87
2021/12/24 03:36:37;;;;;;;8.65;6.95;;;9.90;76.60;;;;;;5055985;28;20017;-86
2021/12/24 03:39:08;;;;;;;11.05;7.88;;;9.90;76.50;;;;;;5042921;28;20037;-86
2021/12/24 03:41:33;;;;;;;9.77;7.18;;;9.90;76.50;;;;;;5022132;28;20119;-88
2021/12/24 03:43:59;;;;;;;9.18;6.95;;;9.90;76.50;;;;;;5038875;28;20096;-89
2021/12/24 03:46:41;;;;;;;9.43;7.53;;;10.00;76.50;;;;;;5039435;28;20044;-87
2021/12/24 03:49:16;;;;;;;8.73;7.00;;;10.00;76.50;;;;;;5041233;28;20056;-88
2021/12/24 03:52:01;;;;;;;9.45;7.38;;;10.00;76.40;;;;;;5038797;28;20028;-89
2021/12/24 03:57:11;;;;;;;8.90;7.13;;;10.00;76.40;;;;;;5054649;28;20134;-87
2021/12/24 04:00:08;;;;;;;8.88;7.13;;;10.10;76.50;;;;;;5039774;28;20056;-87
2021/12/24 04:02:44;;;;;;;8.98;7.07;;;10.10;76.50;;;;;;5053818;28;20036;-88
2021/12/24 04:05:17;;;;;;;8.80;7.03;;;10.10;76.50;;;;;;5055347;28;20041;-88
2021/12/24 04:08:09;;;;;;;8.77;6.78;;;10.10;76.50;;;;;;5039500;28;20032;-89
2021/12/24 04:10:47;;;;;;;8.88;7.07;;;10.20;76.50;;;;;;5023220;28;20033;-87
2021/12/24 04:13:34;;;;;;;9.38;7.40;;;10.20;76.50;;;;;;5041447;28;20067;-87
2021/12/24 04:16:00;;;;;;;9.20;7.07;;;10.20;76.50;;;;;;5054663;28;20424;-88
2021/12/24 04:26:27;;;;;;;8.47;6.77;;;10.20;76.40;;;;;;5048374;28;20036;-88
2021/12/24 04:28:54;;;;;;;7.78;6.32;;;10.20;76.40;;;;;;5037623;28;20282;-88
2021/12/24 04:31:27;;;;;;;8.80;6.53;;;10.30;76.50;;;;;;5005050;28;20115;-88
2021/12/24 04:34:06;;;;;;;8.43;6.07;;;10.30;76.50;;;;;;5054454;28;20059;-87
2021/12/24 04:39:29;;;;;;;8.20;6.03;;;10.30;77.10;;;;;;5053887;28;20037;-89
2021/12/24 05:01:16;;;;;;;7.70;5.80;;;10.50;76.50;;;;;;5039400;28;20474;-88
2021/12/24 05:03:44;;;;;;;7.03;5.63;;;10.50;76.50;;;;;;5024142;28;20557;-87
2021/12/24 05:08:43;;;;;;;7.68;5.97;;;10.50;76.50;;;;;;5053907;28;20037;-88
2021/12/24 05:11:12;;;;;;;9.10;5.97;;;10.50;76.50;;;;;;5054528;28;20523;-87
2021/12/24 05:13:39;;;;;;;8.98;6.35;;;10.60;76.50;;;;;;5038669;28;20032;-89
2021/12/24 05:21:53;;;;;;;9.30;5.43;;;10.60;76.40;;;;;;5059227;28;20095;-87
2021/12/24 05:24:21;;;;;;;8.20;6.40;;;10.60;76.50;;;;;;5025537;28;20044;-86
2021/12/24 05:26:51;;;;;;;6.88;5.13;;;10.70;76.50;;;;;;5059099;28;20025;-87
2021/12/24 05:29:17;;;;;;;8.35;5.38;;;10.70;76.50;;;;;;5041587;28;20028;-88
2021/12/24 05:31:44;;;;;;;7.40;5.55;;;10.70;76.50;;;;;;5062111;28;20029;-88
2021/12/24 05:34:10;;;;;;;7.60;5.88;;;10.70;76.50;;;;;;5063517;28;20021;-88
2021/12/24 05:36:36;;;;;;;6.70;5.53;;;10.70;76.50;;;;;;5058599;28;20022;-89
2021/12/24 05:39:04;;;;;;;8.63;5.55;;;10.70;76.50;;;;;;5040610;28;20029;-90
2021/12/24 05:41:33;;;;;;;7.35;5.22;;;10.80;76.50;;;;;;5024093;28;20032;-89
2021/12/24 05:44:02;;;;;;;7.30;5.55;;;10.80;76.50;;;;;;5040615;28;20086;-87
2021/12/24 05:46:29;;;;;;;7.07;5.13;;;10.80;76.40;;;;;;5056924;28;20031;-88
2021/12/24 05:49:14;;;;;;;8.82;5.32;;;10.80;76.40;;;;;;5058105;28;20103;-87
2021/12/24 05:51:50;;;;;;;7.07;5.20;;;10.80;76.40;;;;;;5042126;28;20033;-88
2021/12/24 05:54:32;;;;;;;6.72;4.55;;;10.80;76.40;;;;;;5063083;28;20094;-86
2021/12/24 05:56:59;;;;;;;6.72;4.88;;;10.80;76.40;;;;;;5043784;28;20029;-87
2021/12/24 05:59:26;;;;;;;6.90;4.90;;;10.80;76.40;;;;;;5040912;28;20033;-86
2021/12/24 06:01:52;;;;;;;7.50;4.80;;;10.80;76.40;;;;;;5057289;28;20021;-87
2021/12/24 06:04:17;;;;;;;6.88;5.25;;;10.80;76.40;;;;;;5024827;28;20028;-87
2021/12/24 06:06:43;;;;;;;6.43;4.93;;;10.90;76.50;;;;;;5040685;28;20429;-88
2021/12/24 06:09:09;;;;;;;6.97;5.07;;;10.90;76.40;;;;;;5040580;28;20033;-88
2021/12/24 06:11:35;;;;;;;6.95;4.63;;;10.90;76.40;;;;;;5056660;28;20043;-85
2021/12/24 06:14:09;;;;;;;7.78;4.95;;;10.90;76.40;;;;;;5041063;28;20033;-84
2021/12/24 06:16:35;;;;;;;6.53;4.50;;;10.90;76.40;;;;;;5039992;28;20124;-83
2021/12/24 06:19:02;;;;;;;6.53;4.70;;;11.00;76.40;;;;;;5023118;28;20087;-83
2021/12/24 06:21:28;;;;;;;6.53;4.20;;;11.00;76.40;;;;;;5039419;28;20029;-84
2021/12/24 06:23:54;;;;;;;8.30;4.90;;;11.00;76.40;;;;;;5056377;28;20058;-85
2021/12/24 06:26:19;;;;;;;6.25;4.40;;;11.00;76.40;;;;;;5022711;28;20033;-84
2021/12/24 06:28:47;;;;;;;6.47;4.45;;;11.00;76.40;;;;;;5056494;28;20036;-82
2021/12/24 06:31:13;;;;;;;6.50;4.10;;;11.00;76.40;;;;;;5039731;28;20033;-82
2021/12/24 06:33:39;;;;;;;6.25;4.47;;;11.00;76.30;;;;;;5040167;28;20422;-81
2021/12/24 06:36:06;;;;;;;7.03;4.22;;;11.00;76.40;;;;;;5038777;28;20458;-82
2021/12/24 06:38:32;;;;;;;7.07;4.70;;;11.00;76.40;;;;;;5023169;28;20059;-82
2021/12/24 06:40:57;;;;;;;5.55;4.15;;;11.00;76.30;;;;;;5056297;28;20489;-82
2021/12/24 06:43:23;;;;;;;5.80;4.10;;;11.00;76.30;;;;;;5039372;28;20436;-88
2021/12/24 06:45:50;;;;;;;6.30;4.30;;;11.00;76.30;;;;;;5056979;28;20108;-83
2021/12/24 06:48:16;;;;;;;7.22;4.32;;;11.00;76.30;;;;;;5038996;28;20028;-83
2021/12/24 06:50:42;;;;;;;6.95;4.57;;;11.10;76.40;;;;;;5022963;28;20508;-85
2021/12/24 06:53:08;;;;;;;6.28;4.38;;;11.10;76.30;;;;;;5056088;28;20040;-86
2021/12/24 06:55:34;;;;;;;5.47;4.10;;;11.10;76.40;;;;;;5039892;28;20458;-84
2021/12/24 06:58:06;;;;;;;6.90;4.10;;;11.10;76.30;;;;;;5058344;28;20029;-86
2021/12/24 07:00:34;;;;;;;6.38;3.95;;;11.10;76.30;;;;;;5073854;28;20025;-88
2021/12/24 07:03:02;;;;;;;5.18;4.00;;;11.10;76.30;;;;;;5044025;28;20020;-85
2021/12/24 07:05:27;;;;;;;9.25;4.43;;;11.10;76.30;;;;;;5039379;28;20025;-84
2021/12/24 07:07:53;;;;;;;5.63;3.85;;;11.10;76.30;;;;;;5039427;28;20477;-83
2021/12/24 07:10:19;;;;;;;5.20;3.60;;;11.10;76.30;;;;;;5038747;28;20037;-85
2021/12/24 07:12:45;;;;;;;4.80;3.80;;;11.10;76.30;;;;;;5056075;28;20438;-86
2021/12/24 07:15:11;;;;;;;5.10;3.67;;;11.10;76.30;;;;;;5038881;28;20029;-84
2021/12/24 07:17:37;;;;;;;6.75;3.85;;;11.10;76.30;;;;;;5022012;28;20087;-84
2021/12/24 07:20:03;;;;;;;5.35;3.63;;;11.20;76.30;;;;;;5055524;28;20429;-84
2021/12/24 07:22:29;;;;;;;5.55;3.80;;;11.10;76.30;;;;;;5038660;28;20047;-84
2021/12/24 07:24:55;;;;;;;6.65;4.13;;;11.20;76.30;;;;;;5054869;28;20033;-84
2021/12/24 07:27:20;;;;;;;5.10;3.83;;;11.20;76.40;;;;;;5038613;28;20024;-85
2021/12/24 07:29:46;;;;;;;5.20;3.75;;;11.20;76.30;;;;;;5054977;28;20024;-84
2021/12/24 07:32:12;;;;;;;5.53;3.65;;;11.20;76.30;;;;;;5038368;28;20033;-84
2021/12/24 07:34:38;;;;;;;6.57;3.90;;;11.20;76.30;;;;;;5039004;28;20044;-82
2021/12/24 07:37:04;;;;;;;4.57;3.40;;;11.20;76.30;;;;;;5054548;28;20452;-84
2021/12/24 07:39:29;;;;;;;4.85;3.40;;;11.20;76.90;;;;;;5055186;28;20094;-82
2021/12/24 07:41:55;;;;;;;4.93;3.38;;;11.20;76.30;;;;;;5038830;28;20022;-83
2021/12/24 07:44:21;;;;;;;4.93;3.47;;;11.20;76.30;;;;;;5038613;28;20032;-84
2021/12/24 07:46:52;;;;;;;5.63;3.47;;;11.20;76.30;;;;;;5039370;28;20178;-85
2021/12/24 07:49:29;;;;;;;4.82;3.15;;;11.20;76.30;;;;;;5061226;28;20059;-84
2021/12/24 07:52:08;;;;;;;6.05;3.05;;;11.20;76.30;;;;;;5039483;28;20048;-84
2021/12/24 07:54:47;;;;;;;4.90;3.33;;;11.20;76.30;;;;;;5039031;28;20462;-85
2021/12/24 07:57:15;;;;;;;6.20;3.20;;;11.20;76.30;;;;;;5038842;28;20029;-85
2021/12/24 07:59:42;;;;;;;5.47;3.30;;;11.20;76.30;;;;;;5038287;28;20036;-84
2021/12/24 08:02:13;;;;;;;5.30;3.30;;;11.20;76.30;;;;;;5054608;28;20036;-85
2021/12/24 08:04:39;;;;;;;5.28;3.30;;;11.20;76.90;;;;;;5045520;28;20036;-83
2021/12/24 08:07:05;;;;;;;5.78;3.42;;;11.20;76.30;;;;;;5042306;28;20112;-84
2021/12/24 08:09:31;;;;;;;5.15;3.20;;;11.20;76.30;;;;;;5049743;28;20024;-83
2021/12/24 08:11:57;;;;;;;5.70;3.60;;;11.20;76.30;;;;;;5058594;28;20033;-84
2021/12/24 08:14:22;;;;;;;6.13;3.35;;;11.20;76.30;;;;;;5055184;28;20090;-85
2021/12/24 08:16:48;;;;;;;6.00;3.63;;;11.20;76.30;;;;;;5038275;28;20024;-85
2021/12/24 08:19:16;;;;;;;5.00;3.38;;;11.20;76.30;;;;;;5037840;28;20061;-85
2021/12/24 08:21:45;;;;;;;7.20;3.30;;;11.20;76.30;;;;;;5038415;28;20116;-85
2021/12/24 08:24:11;;;;;;;5.32;3.50;;;11.20;76.90;;;;;;5021021;28;20045;-85
2021/12/24 08:26:37;;;;;;;4.57;3.17;;;11.20;76.20;;;;;;5054618;28;20124;-84
2021/12/24 08:29:03;;;;;;;5.35;3.25;;;11.20;76.20;;;;;;5054470;28;20486;-85
2021/12/24 08:31:29;;;;;;;5.00;3.40;;;11.20;76.20;;;;;;5037507;28;20386;-85
2021/12/24 08:33:55;;;;;;;4.53;3.22;;;11.20;76.30;;;;;;5021757;28;20064;-85
2021/12/24 08:36:20;;;;;;;5.35;3.25;;;11.20;76.20;;;;;;5038408;28;20017;-87
2021/12/24 08:38:46;;;;;;;5.28;3.42;;;11.20;76.20;;;;;;5037164;28;20102;-85
2021/12/24 08:41:12;;;;;;;6.50;3.80;;;11.20;76.30;;;;;;5021080;28;20040;-85
2021/12/24 08:43:38;;;;;;;5.88;3.30;;;11.20;76.20;;;;;;5054239;28;20040;-85
2021/12/24 08:46:03;;;;;;;5.15;3.13;;;11.20;76.20;;;;;;5037366;28;20025;-85
2021/12/24 08:48:29;;;;;;;4.53;2.97;;;11.20;76.20;;;;;;5053794;28;20029;-84
2021/12/24 08:50:55;;;;;;;6.00;3.63;;;11.20;76.20;;;;;;5037335;28;20029;-83
2021/12/24 08:53:23;;;;;;;5.22;3.70;;;11.20;76.20;;;;;;5021024;28;20029;-84
2021/12/24 08:55:51;;;;;;;6.00;3.30;;;11.20;76.30;;;;;;5039058;28;20033;-84
2021/12/24 08:58:17;;;;;;;5.07;3.38;;;11.20;76.30;;;;;;5055205;28;20473;-85
2021/12/24 09:00:43;;;;;;;7.70;3.70;;;11.20;76.20;;;;;;5055107;28;20033;-85
2021/12/24 09:03:09;;;;;;;5.15;3.53;;;11.20;76.20;;;;;;5053374;28;20036;-84
2021/12/24 09:05:35;;;;;;;6.72;2.92;;;11.20;76.20;;;;;;5054310;28;20100;-85
2021/12/24 09:08:01;;;;;;;5.35;3.55;;;11.20;76.20;;;;;;5037053;28;20032;-85
2021/12/24 09:10:26;;;;;;;5.72;3.55;;;11.20;76.20;;;;;;5020768;28;20183;-84
2021/12/24 09:12:53;;;;;;;6.82;3.58;;;11.20;76.20;;;;;;5053722;28;20071;-85
2021/12/24 09:15:19;;;;;;;4.65;3.63;;;11.20;76.20;;;;;;5056916;28;20029;-84
2021/12/24 09:17:47;;;;;;;5.72;3.45;;;11.20;76.20;;;;;;5036333;28;20033;-86
2021/12/24 09:20:30;;;;;;;6.85;3.83;;;11.30;76.30;;;;;;5053954;28;20466;-85
2021/12/24 09:22:56;;;;;;;5.53;3.50;;;11.30;76.30;;;;;;5038307;28;20036;-91
2021/12/24 09:25:23;;;;;;;6.18;3.50;;;11.30;76.30;;;;;;5037385;28;20021;-92
2021/12/24 09:27:50;;;;;;;5.88;3.75;;;11.20;76.30;;;;;;5054757;28;20033;-93
2021/12/24 09:30:16;;;;;;;5.78;4.20;;;11.30;76.30;;;;;;5054645;28;20108;-90
2021/12/24 09:32:42;;;;;;;6.43;4.40;;;11.30;76.90;;;;;;5055261;28;20118;-89
2021/12/24 09:35:10;;;;;;;5.95;3.67;;;11.30;76.30;;;;;;5021572;28;20033;-92
2021/12/24 09:37:37;;;;;;;6.97;4.15;;;11.20;76.20;;;;;;5020608;28;20461;-93
2021/12/24 09:40:04;;;;;;;5.03;3.65;;;11.30;76.30;;;;;;5020564;28;20534;-92
2021/12/24 09:42:31;;;;;;;6.47;4.13;;;11.30;76.30;;;;;;5037103;28;20116;-90
2021/12/24 09:44:58;;;;;;;5.15;3.65;;;11.20;76.20;;;;;;5020597;28;20057;-92
2021/12/24 09:47:25;;;;;;;6.13;4.10;;;11.20;76.20;;;;;;5037076;28;20063;-92
2021/12/24 09:49:52;;;;;;;7.18;4.55;;;11.20;76.30;;;;;;5037094;28;20064;-92
2021/12/24 09:52:19;;;;;;;6.53;4.38;;;11.30;76.30;;;;;;5036918;28;20511;-91
2021/12/24 09:54:46;;;;;;;6.13;4.32;;;11.30;76.30;;;;;;5020370;28;20124;-91
2021/12/24 09:57:12;;;;;;;7.80;4.03;;;11.30;76.30;;;;;;5037649;28;20025;-91
2021/12/24 09:59:38;;;;;;;6.85;4.10;;;11.30;76.30;;;;;;5021685;28;20033;-92
2021/12/24 10:02:07;;;;;;;5.80;3.90;;;11.30;76.30;;;;;;5040712;28;20044;-90
2021/12/24 10:04:35;;;;;;;6.05;4.20;;;11.30;76.30;;;;;;5068187;28;20025;-89
2021/12/24 10:07:08;;;;;;;5.95;3.92;;;11.30;76.30;;;;;;5029022;28;20025;-91
2021/12/24 10:09:40;;;;;;;7.80;4.47;;;11.30;76.30;;;;;;5058925;28;20044;-91
2021/12/24 10:12:09;;;;;;;6.95;4.13;;;11.30;76.30;;;;;;5040548;28;20021;-91
2021/12/24 10:14:39;;;;;;;6.22;4.38;;;11.30;76.30;;;;;;5024821;28;20084;-90
2021/12/24 10:17:23;;;;;;;6.25;3.83;;;11.30;76.30;;;;;;5057469;28;20037;-89
2021/12/24 10:19:55;;;;;;;7.85;4.32;;;11.30;76.30;;;;;;5039745;28;20068;-91
2021/12/24 10:22:22;;;;;;;6.63;4.30;;;11.30;76.30;;;;;;5044782;28;20041;-89
2021/12/24 10:25:08;;;;;;;5.10;4.00;;;11.30;76.30;;;;;;5063310;28;20021;-93
2021/12/24 10:27:35;;;;;;;7.50;4.65;;;11.30;76.40;;;;;;5040719;28;20130;-88
2021/12/24 10:30:24;;;;;;;6.03;3.88;;;11.30;76.30;;;;;;5057241;28;20058;-86
2021/12/24 10:32:55;;;;;;;6.30;4.00;;;11.30;76.50;;;;;;5044574;28;20120;-90
2021/12/24 10:35:29;;;;;;;5.95;4.20;;;11.30;76.30;;;;;;5057377;28;20060;-89
2021/12/24 10:38:14;;;;;;;6.63;4.30;;;11.30;76.40;;;;;;5057677;28;20136;-89
2021/12/24 10:40:53;;;;;;;6.30;4.18;;;11.30;76.50;;;;;;5057667;28;20025;-91
2021/12/24 10:43:28;;;;;;;7.82;4.07;;;11.30;76.40;;;;;;5039995;28;20064;-90
2021/12/24 10:46:18;;;;;;;7.05;4.22;;;11.30;76.40;;;;;;5039987;28;20040;-90
2021/12/24 10:49:06;;;;;;;4.60;3.53;;;11.30;77.10;;;;;;5056355;28;20032;-92
2021/12/24 10:51:57;;;;;;;6.90;4.45;;;11.30;76.50;;;;;;5040243;28;20071;-92
2021/12/24 10:54:23;;;;;;;5.88;3.80;;;11.30;76.50;;;;;;5057927;28;20116;-90
2021/12/24 10:56:49;;;;;;;6.18;4.15;;;11.30;76.40;;;;;;5040869;28;20052;-91
2021/12/24 10:59:14;;;;;;;6.85;4.22;;;11.30;76.40;;;;;;5039716;28;20362;-89
2021/12/24 11:01:40;;;;;;;7.28;3.60;;;11.30;76.50;;;;;;5056181;28;20033;-91
2021/12/24 11:04:06;;;;;;;5.35;3.67;;;11.30;76.50;;;;;;5057242;28;20468;-89
2021/12/24 11:06:32;;;;;;;5.72;3.97;;;11.30;76.40;;;;;;5040125;28;20029;-90
2021/12/24 11:08:59;;;;;;;6.05;4.10;;;11.40;76.50;;;;;;5040986;28;20341;-90
2021/12/24 11:11:35;;;;;;;7.13;4.30;;;11.30;76.40;;;;;;5066059;28;20027;-88
2021/12/24 11:14:01;;;;;;;6.00;3.88;;;11.30;76.50;;;;;;5057418;28;20159;-89
2021/12/24 11:16:27;;;;;;;5.97;3.70;;;11.40;76.40;;;;;;5023240;28;20070;-90
2021/12/24 11:19:01;;;;;;;6.35;3.88;;;11.30;76.40;;;;;;5057158;28;20048;-88
2021/12/24 11:21:29;;;;;;;6.38;4.13;;;11.40;76.50;;;;;;5056520;28;20068;-90
2021/12/24 11:23:56;;;;;;;5.68;3.80;;;11.40;76.50;;;;;;5057033;28;20032;-88
2021/12/24 11:26:23;;;;;;;5.28;3.80;;;11.40;76.40;;;;;;5039476;28;20029;-90
2021/12/24 11:28:49;;;;;;;6.10;3.75;;;11.40;76.50;;;;;;5046367;28;20037;-90
2021/12/24 11:31:21;;;;;;;5.65;3.28;;;11.40;76.50;;;;;;5036480;28;20025;-91
2021/12/24 11:33:49;;;;;;;8.15;3.85;;;11.40;76.50;;;;;;5058883;28;20080;-94
2021/12/24 11:36:17;;;;;;;6.30;3.72;;;11.40;76.50;;;;;;5059372;28;20045;-90
2021/12/24 11:38:44;;;;;;;6.90;3.50;;;11.40;76.50;;;;;;5056433;28;20041;-91
2021/12/24 11:41:13;;;;;;;5.93;3.80;;;11.40;76.50;;;;;;5038718;28;20025;-91
2021/12/24 11:43:43;;;;;;;6.82;3.92;;;11.40;76.50;;;;;;5055898;28;20466;-92
2021/12/24 11:46:10;;;;;;;6.70;3.90;;;11.40;76.50;;;;;;5039393;28;20033;-91
2021/12/24 11:48:37;;;;;;;7.28;4.57;;;11.40;76.50;;;;;;5022774;28;20040;-91
2021/12/24 11:51:19;;;;;;;5.75;3.60;;;11.40;76.50;;;;;;5039144;28;20036;-92
2021/12/24 11:53:46;;;;;;;6.40;3.60;;;11.40;76.50;;;;;;5057183;28;20144;-91
2021/12/24 11:56:15;;;;;;;6.22;3.70;;;11.40;76.40;;;;;;5056075;28;20033;-91
2021/12/24 11:58:44;;;;;;;5.22;3.42;;;11.40;76.50;;;;;;5056940;28;20029;-92
2021/12/24 12:01:10;;;;;;;4.53;3.28;;;11.40;76.50;;;;;;5055588;28;20053;-91
2021/12/24 12:03:38;;;;;;;6.85;3.25;;;11.50;76.50;;;;;;5054700;28;20063;-91
2021/12/24 12:06:25;;;;;;;5.28;3.35;;;11.50;76.50;;;;;;5055258;28;20078;-90
2021/12/24 12:08:53;;;;;;;5.72;3.08;;;11.50;76.50;;;;;;5038516;28;20055;-93
2021/12/24 12:11:25;;;;;;;4.25;2.78;;;11.50;77.10;;;;;;5055142;28;20057;-92
2021/12/24 12:13:55;;;;;;;5.72;3.10;;;11.50;76.50;;;;;;5054924;28;20035;-90
2021/12/24 12:16:24;;;;;;;5.13;3.20;;;11.50;76.50;;;;;;5038669;28;20025;-88
2021/12/24 12:19:08;;;;;;;6.82;3.28;;;11.50;76.50;;;;;;5042863;28;20087;-87
2021/12/24 12:21:42;;;;;;;4.25;3.15;;;11.50;76.60;;;;;;5070625;28;20148;-86
2021/12/24 12:26:49;;;;;;;4.97;3.17;;;11.50;76.50;;;;;;5055988;28;20033;-91
2021/12/24 12:29:24;;;;;;;7.03;3.17;;;11.50;76.50;;;;;;5038601;28;20033;-91
2021/12/24 12:31:51;;;;;;;;;;;11.50;76.50;;;;;;5056012;28;20025;-90
2021/12/24 12:34:47;;;;;;;4.55;2.85;;;11.50;76.50;;;;;;5056211;28;19905;-90
2021/12/24 12:37:22;;;;;;;4.05;2.75;;;11.50;76.60;;;;;;5036841;28;20484;-92
2021/12/24 12:40:02;;;;;;;5.43;3.00;;;11.50;76.60;;;;;;5054944;28;20041;-94
2021/12/24 12:42:54;;;;;;;4.88;2.92;;;11.50;76.60;;;;;;5038605;28;20029;-91
2021/12/24 12:45:42;;;;;;;4.72;3.58;;;11.50;76.70;;;;;;5055402;28;20033;-92
2021/12/24 12:48:11;;;;;;;5.68;3.28;;;11.50;76.60;;;;;;5037666;28;20040;-93
2021/12/24 12:50:39;;;;;;;5.25;2.88;;;11.50;76.60;;;;;;5055234;28;20150;-92
2021/12/24 12:53:34;;;;;;;4.97;3.00;;;11.50;76.60;;;;;;5037865;28;20025;-90
2021/12/24 12:56:20;;;;;;;4.20;3.05;;;11.50;76.80;;;;;;5054647;28;20443;-91
2021/12/24 12:58:56;;;;;;;4.55;3.08;;;11.50;76.70;;;;;;5054343;28;20077;-90
2021/12/24 13:01:23;;;;;;;6.00;3.25;;;11.60;76.60;;;;;;5055129;28;20104;-87
2021/12/24 13:03:58;;;;;;;5.47;3.08;;;11.50;76.60;;;;;;5037088;28;20097;-87
2021/12/24 13:06:45;;;;;;;5.30;2.85;;;11.60;76.70;;;;;;5037255;28;20029;-87
2021/12/24 13:09:35;;;;;;;6.38;3.25;;;11.60;76.70;;;;;;5040158;28;20040;-87
2021/12/24 13:12:03;;;;;;;4.50;2.85;;;11.60;76.60;;;;;;5037392;28;20025;-90
2021/12/24 13:14:31;;;;;;;4.88;3.15;;;11.60;76.60;;;;;;5054839;28;20036;-88
2021/12/24 13:17:17;;;;;;;5.07;2.95;;;11.60;76.70;;;;;;5037080;28;20064;-88
2021/12/24 13:22:30;;;;;;;6.43;3.38;;;11.60;76.60;;;;;;5054181;28;20123;-88
2021/12/24 13:25:00;;;;;;;5.55;3.42;;;11.60;76.60;;;;;;5037489;28;20025;-87
2021/12/24 13:27:33;;;;;;;4.75;3.15;;;11.60;76.70;;;;;;5056094;28;20462;-88
2021/12/24 13:30:18;;;;;;;4.13;2.88;;;11.60;76.60;;;;;;5061469;28;20025;-87
2021/12/24 13:32:53;;;;;;;5.03;3.25;;;11.60;76.80;;;;;;5053646;28;20029;-88
2021/12/24 13:35:30;;;;;;;5.63;3.47;;;11.70;76.70;;;;;;5056184;28;20480;-88
2021/12/24 13:37:57;;;;;;;5.03;3.35;;;11.60;76.70;;;;;;5057767;28;20040;-89
2021/12/24 13:40:31;;;;;;;5.68;3.33;;;11.70;76.70;;;;;;5040766;28;20119;-87
2021/12/24 13:43:03;;;;;;;5.20;3.10;;;11.70;76.70;;;;;;5052865;28;20457;-88
2021/12/24 13:45:35;;;;;;;6.00;3.72;;;11.70;76.70;;;;;;5064255;28;20029;-89
2021/12/24 13:48:12;;;;;;;5.78;3.42;;;11.70;76.70;;;;;;5059226;28;20122;-89
2021/12/24 13:56:20;;;;;;;6.03;3.90;;;11.70;76.70;;;;;;5057437;28;20119;-88
2021/12/24 13:58:56;;;;;;;5.03;3.13;;;11.70;76.60;;;;;;5057866;28;20079;-89
2021/12/24 14:01:29;;;;;;;5.60;3.20;;;11.70;76.70;;;;;;5043645;28;20033;-87
2021/12/24 14:03:57;;;;;;;5.60;3.28;;;11.70;76.70;;;;;;5041185;28;20519;-87
2021/12/24 14:06:37;;;;;;;4.90;3.10;;;11.70;76.70;;;;;;5057202;28;20108;-87
2021/12/24 14:09:17;;;;;;;7.28;3.67;;;11.70;76.80;;;;;;5057853;28;20100;-87
2021/12/24 14:11:44;;;;;;;6.93;3.78;;;11.70;76.70;;;;;;5057595;28;20436;-86
2021/12/24 14:14:39;;;;;;;4.22;3.05;;;11.70;76.60;;;;;;5024309;28;20032;-88
2021/12/24 14:20:00;;;;;;;5.32;3.22;;;11.70;76.70;;;;;;5056496;28;20098;-86
2021/12/24 14:22:31;;;;;;;5.75;3.65;;;11.70;76.60;;;;;;5056538;28;20484;-86
2021/12/24 14:25:01;;;;;;;5.32;3.60;;;11.80;76.70;;;;;;5057412;28;20029;-85
2021/12/24 14:27:29;;;;;;;5.93;3.30;;;11.70;76.70;;;;;;5039878;28;20036;-86
2021/12/24 14:30:06;;;;;;;4.63;3.10;;;11.70;76.70;;;;;;5039790;28;20021;-86
2021/12/24 14:32:36;;;;;;;5.45;3.58;;;11.70;76.70;;;;;;5057413;28;20029;-86
2021/12/24 14:35:23;;;;;;;4.97;3.28;;;11.70;76.60;;;;;;5058311;28;20036;-86
2021/12/24 14:38:01;;;;;;;7.80;4.30;;;11.70;76.70;;;;;;5061300;28;20067;-87
2021/12/24 14:40:29;;;;;;;4.93;3.15;;;11.70;76.70;;;;;;5057286;28;20512;-87
2021/12/24 14:42:55;;;;;;;4.70;3.25;;;11.70;76.60;;;;;;5023094;28;20416;-86
2021/12/24 14:45:27;;;;;;;5.13;3.50;;;11.70;76.70;;;;;;5040191;28;20123;-88
2021/12/24 14:48:16;;;;;;;4.90;3.45;;;11.70;76.70;;;;;;5040149;28;20083;-88
2021/12/24 14:50:59;;;;;;;6.20;3.55;;;11.70;76.70;;;;;;5055317;28;20029;-88
2021/12/24 14:53:45;;;;;;;5.97;3.60;;;11.70;76.70;;;;;;5056759;28;20029;-83
2021/12/24 14:56:16;;;;;;;5.65;3.47;;;11.70;76.70;;;;;;5056997;28;20033;-88
2021/12/24 14:58:43;;;;;;;5.97;3.33;;;11.70;76.60;;;;;;5056201;28;20099;-87